Time;durP1;ratioP1;P1;durP2;ratioP2;P2;SDS_P1;SDS_P2;PMS_P1;PMS_P2;Temp;Humidity;BMP_temperature;BMP_pressure;BME280_temperature;BME280_humidity;BME280_pressure;Samples;Min_cycle;Max_cycle;Signal;HPM_P1;HPM_P2
2021/11/24 00:00:24;;;;;;;71.87;37.60;;;;;;;5.68;99.43;101426.53;1618733;88;28389;-78
2021/11/24 00:02:54;;;;;;;68.37;34.05;;;;;;;5.67;99.35;101427.50;1577277;88;25830;-77
2021/11/24 00:05:21;;;;;;;70.10;36.08;;;;;;;5.69;99.40;101430.89;1571370;88;26534;-77
2021/11/24 00:07:48;;;;;;;71.12;35.85;;;;;;;5.68;99.32;101430.05;1618907;88;25916;-78
2021/11/24 00:10:18;;;;;;;66.97;34.43;;;;;;;5.69;99.25;101430.89;1618739;88;26608;-78
2021/11/24 00:12:46;;;;;;;80.25;39.18;;;;;;;5.69;99.20;101431.70;1593489;88;27677;-78
2021/11/24 00:15:13;;;;;;;70.75;36.50;;;;;;;5.69;99.25;101425.58;1551364;88;26502;-78
2021/11/24 00:17:40;;;;;;;65.15;35.20;;;;;;;5.70;99.17;101429.90;1618666;88;25858;-78
2021/11/24 00:20:09;;;;;;;67.35;33.60;;;;;;;5.69;99.11;101426.39;1614411;88;26594;-77
2021/11/24 00:22:36;;;;;;;72.87;34.85;;;;;;;5.69;99.09;101429.56;1576539;88;25955;-77
2021/11/24 00:25:05;;;;;;;66.75;34.70;;;;;;;5.70;99.01;101427.24;1571197;88;27386;-78
2021/11/24 00:27:32;;;;;;;67.00;35.45;;;;;;;5.69;98.97;101425.06;1618885;88;25998;-77
2021/11/24 00:29:59;;;;;;;64.53;32.67;;;;;;;5.69;98.94;101422.41;1614504;88;25923;-78
2021/11/24 00:32:27;;;;;;;68.80;32.93;;;;;;;5.70;98.97;101425.43;1572585;88;25864;-78
2021/11/24 00:34:54;;;;;;;68.47;32.70;;;;;;;5.69;98.90;101420.27;1571993;88;25629;-77
2021/11/24 00:37:21;;;;;;;66.07;33.33;;;;;;;5.68;98.82;101422.07;1593195;88;28238;-78
2021/11/24 00:39:48;;;;;;;63.92;34.35;;;;;;;5.66;98.82;101420.04;1614077;88;25784;-78
2021/11/24 00:42:17;;;;;;;73.83;35.80;;;;;;;5.68;98.84;101418.56;1556372;88;25896;-77
2021/11/24 00:44:44;;;;;;;65.87;34.13;;;;;;;5.67;98.75;101412.88;1571965;88;25906;-78
2021/11/24 00:47:11;;;;;;;73.20;36.77;;;;;;;5.66;98.73;101412.55;1618688;87;25492;-78
2021/11/24 00:49:39;;;;;;;64.58;32.20;;;;;;;5.66;98.70;101408.56;1572905;88;28231;-77
2021/11/24 00:52:10;;;;;;;66.40;34.65;;;;;;;5.66;98.70;101413.39;1572654;88;25846;-78
2021/11/24 00:54:37;;;;;;;74.53;35.70;;;;;;;5.66;98.71;101406.75;1552408;88;26677;-78
2021/11/24 00:57:05;;;;;;;67.37;33.67;;;;;;;5.66;98.62;101402.77;1618695;88;25971;-78
2021/11/24 00:59:32;;;;;;;72.35;37.63;;;;;;;5.68;98.58;101405.27;1618864;88;26150;-77
2021/11/24 01:01:59;;;;;;;74.35;37.25;;;;;;;5.68;98.57;101407.93;1592772;88;28402;-78
2021/11/24 01:04:26;;;;;;;78.42;38.80;;;;;;;5.68;98.50;101399.48;1571090;88;25881;-77
2021/11/24 01:06:53;;;;;;;70.25;34.98;;;;;;;5.69;98.44;101408.30;1571057;88;25872;-77
2021/11/24 01:09:20;;;;;;;72.92;36.40;;;;;;;5.68;98.37;101403.47;1618539;88;25914;-78
2021/11/24 01:11:48;;;;;;;66.33;33.58;;;;;;;5.68;98.31;101406.61;1572755;88;26080;-77
2021/11/24 01:14:15;;;;;;;68.02;33.60;;;;;;;5.69;98.26;101408.30;1551094;88;28349;-78
2021/11/24 01:16:44;;;;;;;59.70;28.38;;;;;;;5.67;98.19;101408.89;1610743;87;25919;-77
2021/11/24 01:19:11;;;;;;;60.20;30.68;;;;;;;5.66;98.17;101410.73;1567374;90;25904;-77
2021/11/24 01:21:38;;;;;;;65.00;32.73;;;;;;;5.64;98.12;101404.72;1552928;90;25875;-77
2021/11/24 01:24:06;;;;;;;61.77;29.98;;;;;;;5.63;98.11;101405.67;1550780;91;26044;-77
2021/11/24 01:26:33;;;;;;;56.70;28.25;;;;;;;5.64;98.12;101399.40;1605179;88;28164;-77
2021/11/24 01:29:00;;;;;;;61.48;29.95;;;;;;;5.65;98.01;101398.89;1627213;88;25950;-78
2021/11/24 01:31:27;;;;;;;58.68;29.65;;;;;;;5.63;97.91;101399.03;1584159;87;25983;-77
2021/11/24 01:33:54;;;;;;;51.65;26.68;;;;;;;5.65;97.99;101402.39;1603723;88;26096;-78
2021/11/24 01:36:21;;;;;;;51.88;26.85;;;;;;;5.63;97.75;101395.05;1618018;88;26592;-78
2021/11/24 01:38:48;;;;;;;55.25;27.30;;;;;;;5.62;97.71;101393.37;1627204;88;27567;-77
2021/11/24 01:41:16;;;;;;;52.30;28.00;;;;;;;5.61;97.69;101392.16;1562899;88;25968;-77
2021/11/24 01:43:43;;;;;;;48.40;25.43;;;;;;;5.61;97.78;101392.16;1551201;88;25753;-77
2021/11/24 01:46:10;;;;;;;55.67;26.42;;;;;;;5.62;97.63;101395.19;1627146;88;25904;-77
2021/11/24 01:48:37;;;;;;;52.93;26.50;;;;;;;5.61;97.67;101381.53;1627685;87;26528;-77
2021/11/24 01:51:04;;;;;;;51.92;26.97;;;;;;;5.63;97.65;101381.76;1563087;88;27613;-77
2021/11/24 01:53:31;;;;;;;46.02;23.55;;;;;;;5.64;97.68;101385.27;1550940;88;26581;-77
2021/11/24 01:56:00;;;;;;;41.45;23.40;;;;;;;5.62;97.47;101377.91;1627282;88;26208;-78
2021/11/24 01:58:28;;;;;;;45.43;24.27;;;;;;;5.60;97.44;101379.39;1627193;88;26908;-78
2021/11/24 02:00:55;;;;;;;46.58;25.00;;;;;;;5.60;97.39;101370.09;1564169;88;25968;-78
2021/11/24 02:03:22;;;;;;;42.70;23.73;;;;;;;5.60;97.43;101373.23;1551096;88;28389;-77
2021/11/24 02:05:49;;;;;;;45.67;24.43;;;;;;;5.60;97.52;101370.09;1592595;88;25889;-77
2021/11/24 02:08:16;;;;;;;48.23;25.77;;;;;;;5.63;97.54;101372.45;1584294;88;25853;-78
2021/11/24 02:10:43;;;;;;;46.13;24.00;;;;;;;5.63;97.42;101371.12;1584362;88;25867;-77
2021/11/24 02:13:10;;;;;;;44.65;23.98;;;;;;;5.64;97.41;101371.49;1604164;88;26166;-78
2021/11/24 02:15:37;;;;;;;49.18;25.55;;;;;;;5.64;97.31;101368.84;1627331;87;27545;-78
2021/11/24 02:18:06;;;;;;;45.83;24.60;;;;;;;5.62;97.40;101371.27;1640479;86;25796;-77
2021/11/24 02:20:40;;;;;;;55.43;28.00;;;;;;;5.63;97.44;101373.78;1611019;86;25377;-77
2021/11/24 02:23:10;;;;;;;52.43;26.23;;;;;;;5.62;97.44;101366.80;1576995;86;26344;-78
2021/11/24 02:25:39;;;;;;;50.85;25.25;;;;;;;5.62;97.46;101365.48;1655783;86;26626;-78
2021/11/24 02:28:06;;;;;;;50.73;26.60;;;;;;;5.63;97.51;101355.18;1655686;86;27492;-77
2021/11/24 02:30:34;;;;;;;52.65;28.00;;;;;;;5.62;97.51;101360.16;1586205;86;25824;-78
2021/11/24 02:33:02;;;;;;;52.58;26.00;;;;;;;5.60;97.61;101352.81;1611106;86;25653;-78
2021/11/24 02:35:29;;;;;;;57.05;27.77;;;;;;;5.58;97.72;101342.78;1655527;86;26569;-78
2021/11/24 02:37:56;;;;;;;46.15;25.45;;;;;;;5.57;97.77;101345.58;1655648;86;25899;-77
2021/11/24 02:40:30;;;;;;;56.40;27.98;;;;;;;5.55;98.00;101339.09;1611445;86;27684;-77
2021/11/24 02:42:57;;;;;;;52.83;26.27;;;;;;;5.53;98.05;101334.39;1576822;86;25994;-77
2021/11/24 02:45:26;;;;;;;47.23;24.47;;;;;;;5.51;98.19;101335.02;1610089;86;25840;-77
2021/11/24 02:47:53;;;;;;;50.52;25.23;;;;;;;5.49;98.41;101335.14;1655608;86;25877;-78
2021/11/24 02:50:21;;;;;;;49.50;25.48;;;;;;;5.48;98.56;101324.17;1632771;86;26050;-77
2021/11/24 02:52:48;;;;;;;57.67;27.65;;;;;;;5.47;98.62;101326.98;1590366;86;27585;-77
2021/11/24 02:55:16;;;;;;;57.73;27.70;;;;;;;5.46;98.76;101327.45;1631253;86;25900;-79
2021/11/24 02:57:46;;;;;;;57.05;28.35;;;;;;;5.48;98.88;101332.63;1632576;86;25830;-78
2021/11/24 03:00:24;;;;;;;57.93;28.10;;;;;;;5.49;98.99;101326.34;1632773;86;26196;-77
2021/11/24 03:02:52;;;;;;;51.53;24.52;;;;;;;5.51;99.01;101330.19;1632152;86;25900;-77
2021/11/24 03:05:23;;;;;;;64.53;29.45;;;;;;;5.49;99.21;101332.48;1609897;86;28207;-77
2021/11/24 03:07:51;;;;;;;57.33;28.30;;;;;;;5.49;99.28;101333.81;1632303;86;25783;-77
2021/11/24 03:10:19;;;;;;;59.65;29.00;;;;;;;5.48;99.22;101328.64;1632576;86;25680;-78
2021/11/24 03:12:46;;;;;;;59.90;28.80;;;;;;;5.49;99.29;101328.49;1655434;86;26502;-77
2021/11/24 03:15:13;;;;;;;57.98;26.65;;;;;;;5.51;99.32;101316.42;1611491;86;25909;-78
2021/11/24 03:17:40;;;;;;;57.85;26.73;;;;;;;5.51;99.43;101311.11;1569170;88;28345;-77
2021/11/24 03:20:10;;;;;;;53.33;25.08;;;;;;;5.52;99.33;101310.63;1627094;88;26531;-78
2021/11/24 03:22:37;;;;;;;52.17;25.12;;;;;;;5.50;99.28;101302.77;1627451;88;25956;-77
2021/11/24 03:25:06;;;;;;;52.15;25.27;;;;;;;5.50;99.26;101308.09;1563162;88;25903;-77
2021/11/24 03:27:36;;;;;;;53.13;25.68;;;;;;;5.50;99.30;101306.75;1551143;88;25914;-78
2021/11/24 03:30:08;;;;;;;56.50;27.70;;;;;;;5.51;99.33;101306.28;1627580;87;28443;-78
2021/11/24 03:32:35;;;;;;;53.05;25.27;;;;;;;5.51;99.28;101305.80;1627789;88;25877;-78
2021/11/24 03:35:03;;;;;;;54.63;25.88;;;;;;;5.52;99.37;101310.63;1562951;88;25413;-77
2021/11/24 03:37:30;;;;;;;54.50;25.37;;;;;;;5.53;99.26;101309.16;1551185;88;25864;-77
2021/11/24 03:39:57;;;;;;;53.73;26.15;;;;;;;5.55;99.26;101311.19;1627407;88;25817;-78
2021/11/24 03:42:24;;;;;;;51.68;25.05;;;;;;;5.57;99.25;101311.04;1584598;88;28027;-77
2021/11/24 03:44:53;;;;;;;46.98;23.00;;;;;;;5.56;99.33;101318.16;1584230;87;26167;-78
2021/11/24 03:47:20;;;;;;;47.20;24.45;;;;;;;5.56;99.16;101311.52;1552302;88;25882;-77
2021/11/24 03:49:47;;;;;;;43.85;19.87;;;;;;;5.58;99.18;101309.56;1627444;88;26081;-77
2021/11/24 03:52:15;;;;;;;51.33;24.87;;;;;;;5.58;99.14;101314.06;1627579;88;25796;-79
2021/11/24 03:54:42;;;;;;;41.75;21.70;;;;;;;5.59;99.00;101316.58;1599880;88;27239;-77
2021/11/24 03:57:09;;;;;;;47.30;22.60;;;;;;;5.61;99.01;101317.75;1550978;88;25891;-77
2021/11/24 03:59:36;;;;;;;48.98;25.57;;;;;;;5.60;98.87;101314.77;1627537;88;25819;-77
2021/11/24 04:02:03;;;;;;;40.98;21.20;;;;;;;5.61;98.84;101319.08;1627517;88;25800;-77
2021/11/24 04:04:30;;;;;;;47.25;22.87;;;;;;;5.61;98.67;101308.45;1562742;88;25818;-78
2021/11/24 04:06:58;;;;;;;41.23;21.12;;;;;;;5.62;98.58;101306.16;1552254;88;27412;-77
2021/11/24 04:09:25;;;;;;;43.52;21.77;;;;;;;5.61;98.50;101306.64;1627330;88;26430;-77
2021/11/24 04:11:52;;;;;;;44.10;22.20;;;;;;;5.61;98.45;101314.61;1627287;88;26519;-78
2021/11/24 04:14:19;;;;;;;40.85;22.25;;;;;;;5.61;98.39;101311.95;1563160;88;27182;-77
2021/11/24 04:16:46;;;;;;;40.60;22.22;;;;;;;5.62;98.36;101309.67;1551165;88;26101;-78
2021/11/24 04:19:13;;;;;;;37.83;21.12;;;;;;;5.63;98.24;101302.51;1652958;86;28316;-78
2021/11/24 04:21:40;;;;;;;47.23;22.55;;;;;;;5.63;98.28;101303.84;1655544;86;26041;-76
2021/11/24 04:24:07;;;;;;;34.38;17.95;;;;;;;5.63;98.14;101301.18;1580683;89;25392;-78
2021/11/24 04:26:35;;;;;;;39.15;21.50;;;;;;;5.64;98.05;101300.22;1572396;88;25987;-78
2021/11/24 04:29:02;;;;;;;35.25;20.55;;;;;;;5.63;98.03;101298.52;1618792;88;26484;-78
2021/11/24 04:31:29;;;;;;;39.10;21.05;;;;;;;5.60;97.86;101293.50;1618707;87;27598;-78
2021/11/24 04:33:56;;;;;;;41.25;23.00;;;;;;;5.59;97.84;101300.63;1576404;88;26587;-77
2021/11/24 04:36:23;;;;;;;41.63;20.88;;;;;;;5.61;97.91;101293.84;1551529;88;25953;-77
2021/11/24 04:38:50;;;;;;;42.65;21.85;;;;;;;5.61;97.93;101294.68;1618520;88;25986;-78
2021/11/24 04:41:18;;;;;;;41.05;22.15;;;;;;;5.61;97.88;101296.02;1592717;88;44250;-77
2021/11/24 04:43:47;;;;;;;39.30;21.20;;;;;;;5.61;97.92;101293.36;1572637;88;27485;-78
2021/11/24 04:46:16;;;;;;;39.40;21.40;;;;;;;5.62;97.91;101296.38;1614135;87;26459;-78
2021/11/24 04:48:44;;;;;;;47.60;22.05;;;;;;;5.63;97.93;101300.70;1593722;88;26442;-77
2021/11/24 04:51:11;;;;;;;39.70;21.52;;;;;;;5.62;97.87;101296.86;1618689;88;26554;-77
2021/11/24 04:53:39;;;;;;;43.00;21.30;;;;;;;5.61;97.90;101296.02;1572734;88;26589;-77
2021/11/24 04:56:06;;;;;;;44.45;23.15;;;;;;;5.60;97.86;101297.48;1614319;88;27531;-77
2021/11/24 04:58:43;;;;;;;38.78;20.12;;;;;;;5.58;97.95;101296.78;1572408;88;25937;-77
2021/11/24 05:01:02;;;;;;;43.33;23.62;;;;;;;5.59;98.00;101298.45;1617344;87;25953;-78
2021/11/24 05:03:29;;;;;;;43.95;25.52;;;;;;;5.58;98.00;101305.58;1572710;88;26415;-77
2021/11/24 05:05:56;;;;;;;41.15;21.93;;;;;;;5.58;97.96;101304.25;1614037;88;25995;-77
2021/11/24 05:08:23;;;;;;;38.75;20.90;;;;;;;5.58;97.95;101301.59;1572608;88;27597;-77
2021/11/24 05:10:50;;;;;;;42.60;22.80;;;;;;;5.57;98.00;101303.06;1618653;88;25776;-77
2021/11/24 05:13:18;;;;;;;44.65;24.43;;;;;;;5.55;97.98;101289.92;1572904;88;26604;-77
2021/11/24 05:15:45;;;;;;;44.10;22.20;;;;;;;5.60;98.05;101294.83;1614359;88;27048;-76
2021/11/24 05:18:20;;;;;;;42.78;22.13;;;;;;;5.62;98.00;101294.20;1560956;90;25929;-77
2021/11/24 05:20:42;;;;;;;50.08;23.55;;;;;;;5.61;97.82;101292.50;1595677;88;27657;-77
2021/11/24 05:23:14;;;;;;;47.25;24.27;;;;;;;5.60;97.81;101294.83;1559509;88;25895;-77
2021/11/24 05:25:38;;;;;;;37.00;20.75;;;;;;;5.60;97.84;101293.02;1564073;88;25961;-78
2021/11/24 05:28:05;;;;;;;40.63;20.48;;;;;;;5.60;97.82;101305.46;1570301;88;26069;-77
2021/11/24 05:30:32;;;;;;;45.73;23.57;;;;;;;5.61;97.73;101295.16;1593213;88;26442;-78
2021/11/24 05:32:59;;;;;;;40.75;21.55;;;;;;;5.59;97.71;101293.98;1587220;88;28330;-78
2021/11/24 05:35:28;;;;;;;42.15;22.75;;;;;;;5.61;97.74;101300.00;1572551;88;25900;-77
2021/11/24 05:37:55;;;;;;;41.83;22.70;;;;;;;5.61;97.61;101297.34;1588541;88;25922;-77
2021/11/24 05:40:22;;;;;;;41.77;22.60;;;;;;;5.62;97.58;101298.19;1613515;88;25867;-77
2021/11/24 05:42:49;;;;;;;42.15;21.73;;;;;;;5.61;97.60;101296.49;1564447;89;25949;-77
2021/11/24 05:45:39;;;;;;;41.73;23.02;;;;;;;5.62;97.59;101293.72;1605738;89;27663;-78
2021/11/24 05:48:08;;;;;;;39.10;20.65;;;;;;;5.65;97.64;101296.56;1607497;87;25924;-80
2021/11/24 05:50:33;;;;;;;39.67;21.68;;;;;;;5.66;97.59;101291.13;1632869;86;25768;-77
2021/11/24 05:53:00;;;;;;;41.63;22.48;;;;;;;5.65;97.40;101288.59;1583289;88;26430;-78
2021/11/24 05:55:28;;;;;;;45.70;25.68;;;;;;;5.66;97.39;101292.95;1565728;90;25856;-78
2021/11/24 05:57:55;;;;;;;38.95;22.73;;;;;;;5.67;97.43;101302.09;1582857;89;27252;-78
2021/11/24 06:00:22;;;;;;;33.98;19.55;;;;;;;5.68;97.46;101289.17;1612886;88;25906;-77
2021/11/24 06:02:49;;;;;;;39.40;21.48;;;;;;;5.69;97.34;101292.69;1571874;88;25842;-77
2021/11/24 06:05:16;;;;;;;38.55;21.48;;;;;;;5.68;97.28;101301.14;1552167;88;25853;-78
2021/11/24 06:07:45;;;;;;;39.18;22.85;;;;;;;5.70;97.26;101299.66;1594584;88;25883;-78
2021/11/24 06:10:13;;;;;;;41.48;22.10;;;;;;;5.68;97.22;101294.49;1615340;88;28311;-78
2021/11/24 06:12:40;;;;;;;39.10;21.20;;;;;;;5.68;97.22;101293.64;1553652;88;25948;-78
2021/11/24 06:15:08;;;;;;;39.00;21.07;;;;;;;5.68;97.28;101293.64;1602684;88;25950;-76
2021/11/24 06:17:35;;;;;;;39.20;22.05;;;;;;;5.69;97.41;101295.34;1572926;88;26568;-79
2021/11/24 06:20:02;;;;;;;41.23;21.57;;;;;;;5.71;97.46;101296.86;1595949;88;25815;-77
2021/11/24 06:22:29;;;;;;;41.88;23.62;;;;;;;5.74;97.42;101303.72;1574327;88;28236;-77
2021/11/24 06:24:56;;;;;;;39.58;22.10;;;;;;;5.72;97.32;101297.22;1590525;88;25799;-76
2021/11/24 06:27:23;;;;;;;41.13;22.15;;;;;;;5.74;97.44;101295.74;1555596;88;25928;-77
2021/11/24 06:29:50;;;;;;;37.30;21.52;;;;;;;5.75;97.33;101294.78;1597241;88;25936;-77
2021/11/24 06:32:17;;;;;;;41.02;22.67;;;;;;;5.73;97.21;101300.72;1576707;88;25891;-77
2021/11/24 06:34:44;;;;;;;39.45;22.90;;;;;;;5.73;97.26;101300.72;1618562;88;28297;-78
2021/11/24 06:37:11;;;;;;;44.65;23.92;;;;;;;5.73;97.18;101296.73;1597105;88;25809;-78
2021/11/24 06:39:38;;;;;;;48.73;24.92;;;;;;;5.73;97.22;101299.39;1595552;88;26517;-77
2021/11/24 06:42:05;;;;;;;46.00;24.72;;;;;;;5.74;97.24;101303.23;1591220;88;26687;-77
2021/11/24 06:44:32;;;;;;;46.30;24.05;;;;;;;5.75;97.36;101306.23;1548683;88;26552;-77
2021/11/24 06:47:00;;;;;;;43.73;23.30;;;;;;;5.78;97.38;101314.42;1565205;90;27646;-77
2021/11/24 06:49:27;;;;;;;38.40;23.38;;;;;;;5.79;97.33;101311.64;1600422;87;25778;-77
2021/11/24 06:51:54;;;;;;;40.80;23.32;;;;;;;5.78;97.15;101311.76;1633054;87;26579;-77
2021/11/24 06:54:21;;;;;;;39.58;21.57;;;;;;;5.77;97.19;101309.62;1576612;87;26034;-77
2021/11/24 06:56:49;;;;;;;39.88;23.22;;;;;;;5.77;97.19;101310.09;1607393;86;25758;-77
2021/11/24 06:59:18;;;;;;;38.53;22.15;;;;;;;5.77;97.25;101310.09;1629154;87;27581;-78
2021/11/24 07:01:45;;;;;;;43.08;22.60;;;;;;;5.75;97.33;101314.72;1632852;87;25814;-78
2021/11/24 07:04:12;;;;;;;35.85;21.52;;;;;;;5.74;97.50;101318.34;1576583;87;25814;-77
2021/11/24 07:06:40;;;;;;;36.35;21.45;;;;;;;5.75;97.60;101318.70;1602353;87;26857;-77
2021/11/24 07:09:12;;;;;;;38.40;22.13;;;;;;;5.76;97.52;101324.35;1620064;87;26173;-77
2021/11/24 07:11:40;;;;;;;41.80;24.07;;;;;;;5.74;97.58;101325.83;1632936;87;27488;-78
2021/11/24 07:14:12;;;;;;;38.28;20.70;;;;;;;5.75;97.60;101323.50;1576911;87;25938;-77
2021/11/24 07:16:39;;;;;;;40.17;21.35;;;;;;;5.76;97.68;101324.35;1601729;87;25817;-77
2021/11/24 07:19:06;;;;;;;41.03;23.07;;;;;;;5.77;97.63;101324.72;1620833;87;25913;-78
2021/11/24 07:21:34;;;;;;;39.18;22.05;;;;;;;5.77;97.74;101326.89;1639317;86;25981;-77
2021/11/24 07:24:02;;;;;;;36.17;18.60;;;;;;;5.79;97.75;101326.75;1577973;87;27276;-77
2021/11/24 07:26:29;;;;;;;36.53;21.50;;;;;;;5.78;97.74;101326.38;1627886;87;25890;-79
2021/11/24 07:28:56;;;;;;;39.73;22.87;;;;;;;5.78;97.76;101323.24;1594102;87;25846;-78
2021/11/24 07:31:23;;;;;;;37.23;22.20;;;;;;;5.79;97.80;101328.08;1628200;87;25900;-78
2021/11/24 07:33:50;;;;;;;41.75;24.25;;;;;;;5.79;97.91;101322.77;1581750;88;25980;-78
2021/11/24 07:36:17;;;;;;;34.67;19.57;;;;;;;5.78;97.89;101321.91;1592396;89;27673;-77
2021/11/24 07:38:44;;;;;;;34.38;19.50;;;;;;;5.79;97.84;101322.28;1568267;89;25877;-77
2021/11/24 07:41:11;;;;;;;39.42;22.13;;;;;;;5.82;97.89;101326.45;1592838;89;25778;-77
2021/11/24 07:43:38;;;;;;;41.85;23.50;;;;;;;5.84;97.92;101320.05;1628531;87;26085;-77
2021/11/24 07:46:05;;;;;;;37.08;21.75;;;;;;;5.89;97.99;101320.97;1647943;86;26579;-77
2021/11/24 07:48:32;;;;;;;40.15;23.02;;;;;;;5.92;98.00;101317.53;1628348;86;27866;-77
2021/11/24 07:50:59;;;;;;;42.83;23.07;;;;;;;5.96;97.85;101322.11;1641068;86;25451;-77
2021/11/24 07:53:26;;;;;;;36.50;21.93;;;;;;;5.96;97.75;101322.95;1589445;88;25939;-77
2021/11/24 07:55:53;;;;;;;40.83;24.35;;;;;;;5.97;97.58;101317.97;1608229;86;25866;-77
2021/11/24 07:58:20;;;;;;;37.50;22.37;;;;;;;5.97;97.42;101326.42;1625276;87;25979;-77
2021/11/24 08:00:48;;;;;;;44.08;24.47;;;;;;;5.97;97.34;101318.45;1632134;86;27484;-77
2021/11/24 08:03:15;;;;;;;42.78;24.35;;;;;;;5.95;97.45;101321.26;1606438;87;25797;-78
2021/11/24 08:05:42;;;;;;;39.58;22.93;;;;;;;5.96;97.48;101317.63;1620626;86;25964;-77
2021/11/24 08:08:10;;;;;;;41.28;22.58;;;;;;;6.00;97.51;101315.04;1626604;86;26297;-78
2021/11/24 08:10:37;;;;;;;41.20;23.05;;;;;;;6.03;97.42;101311.27;1643044;86;25813;-77
2021/11/24 08:13:04;;;;;;;43.05;23.18;;;;;;;6.06;97.48;101307.83;1584183;86;27564;-78
2021/11/24 08:15:31;;;;;;;40.92;24.37;;;;;;;6.06;97.06;101313.14;1607691;86;25903;-77
2021/11/24 08:17:58;;;;;;;40.20;22.07;;;;;;;6.04;96.90;101305.80;1632708;86;26109;-78
2021/11/24 08:20:26;;;;;;;39.27;22.42;;;;;;;6.05;97.07;101302.14;1632796;86;26552;-77
2021/11/24 08:22:53;;;;;;;42.90;23.42;;;;;;;6.05;96.77;101313.30;1589197;86;26613;-77
2021/11/24 08:25:20;;;;;;;40.70;23.47;;;;;;;6.04;96.83;101313.78;1626434;86;27628;-77
2021/11/24 08:27:47;;;;;;;39.58;23.50;;;;;;;6.04;96.85;101309.79;1655325;86;26579;-77
2021/11/24 08:30:15;;;;;;;40.03;22.75;;;;;;;6.06;96.79;101309.64;1655777;86;25961;-77
2021/11/24 08:32:42;;;;;;;39.75;22.82;;;;;;;6.06;96.89;101311.81;1655354;86;25914;-78
2021/11/24 08:35:10;;;;;;;45.33;24.40;;;;;;;6.10;96.93;101307.05;1655560;85;25792;-78
2021/11/24 08:37:37;;;;;;;45.43;26.12;;;;;;;6.10;96.73;101312.36;1611590;86;27662;-78
2021/11/24 08:40:06;;;;;;;35.95;20.30;;;;;;;6.11;96.80;101317.56;1655738;86;25788;-78
2021/11/24 08:42:34;;;;;;;44.80;24.82;;;;;;;6.11;96.38;101318.89;1633269;86;25836;-78
2021/11/24 08:45:01;;;;;;;41.63;22.10;;;;;;;6.11;96.63;101324.22;1590581;86;25843;-78
2021/11/24 08:47:28;;;;;;;38.08;21.93;;;;;;;6.14;96.70;101329.72;1655392;86;25957;-78
2021/11/24 08:49:55;;;;;;;42.45;23.85;;;;;;;6.17;96.68;101333.44;1632629;86;27466;-79
2021/11/24 08:52:22;;;;;;;38.55;22.07;;;;;;;6.17;96.48;101328.97;1590700;86;26050;-78
2021/11/24 08:54:49;;;;;;;45.38;21.57;;;;;;;6.19;96.61;101328.33;1630785;86;25926;-79
2021/11/24 08:57:16;;;;;;;37.17;22.27;;;;;;;6.21;96.36;101333.50;1617408;86;25799;-79
2021/11/24 08:59:44;;;;;;;42.50;22.70;;;;;;;6.22;96.35;101333.35;1643481;86;25857;-78
2021/11/24 09:02:11;;;;;;;42.40;22.77;;;;;;;6.25;96.44;101334.90;1575692;86;28202;-78
2021/11/24 09:04:38;;;;;;;38.40;21.93;;;;;;;6.27;96.18;101328.95;1612250;86;25797;-78
2021/11/24 09:07:05;;;;;;;40.90;22.50;;;;;;;6.27;96.04;101330.75;1615594;87;25873;-78
2021/11/24 09:09:34;;;;;;;44.30;23.73;;;;;;;6.25;95.74;101324.26;1608940;87;25768;-78
2021/11/24 09:12:01;;;;;;;40.58;23.05;;;;;;;6.26;95.92;101326.44;1567455;87;25931;-77
2021/11/24 09:14:28;;;;;;;39.40;20.75;;;;;;;6.27;96.01;101319.63;1630028;87;27594;-78
2021/11/24 09:16:55;;;;;;;40.58;22.35;;;;;;;6.30;95.88;101320.69;1630977;87;26599;-78
2021/11/24 09:19:22;;;;;;;43.33;23.32;;;;;;;6.32;95.94;101317.88;1630947;87;26371;-78
2021/11/24 09:21:50;;;;;;;38.98;22.25;;;;;;;6.33;95.93;101320.39;1567011;87;26599;-78
2021/11/24 09:24:22;;;;;;;38.08;22.62;;;;;;;6.36;95.74;101312.14;1634549;86;26382;-78
2021/11/24 09:26:56;;;;;;;41.77;23.45;;;;;;;6.37;95.75;101311.17;1621017;86;27494;-79
2021/11/24 09:29:15;;;;;;;39.83;22.25;;;;;;;6.40;95.89;101308.69;1620023;88;25825;-79
2021/11/24 09:31:42;;;;;;;44.67;23.73;;;;;;;6.43;95.83;101309.75;1559474;89;26070;-77
2021/11/24 09:34:09;;;;;;;36.58;21.60;;;;;;;6.48;95.70;101311.50;1593400;88;25879;-79
2021/11/24 09:36:37;;;;;;;40.63;22.87;;;;;;;6.50;95.65;101306.88;1593431;88;25983;-78
2021/11/24 09:39:04;;;;;;;39.50;21.87;;;;;;;6.53;95.68;101305.23;1618820;88;27613;-78
2021/11/24 09:41:35;;;;;;;38.70;21.27;;;;;;;6.55;95.49;101305.45;1552138;88;25972;-77
2021/11/24 09:44:04;;;;;;;39.63;21.07;;;;;;;6.57;95.37;101305.30;1618712;88;25820;-77
2021/11/24 09:46:33;;;;;;;41.68;22.05;;;;;;;6.58;95.20;101304.33;1614636;87;25902;-78
2021/11/24 09:49:04;;;;;;;37.30;20.82;;;;;;;6.60;95.41;101303.69;1618743;88;25861;-77
2021/11/24 09:51:34;;;;;;;37.78;21.02;;;;;;;6.63;95.47;101298.09;1553075;88;28080;-78
2021/11/24 09:54:03;;;;;;;38.53;21.12;;;;;;;6.65;95.09;101297.45;1591815;88;25881;-78
2021/11/24 09:56:32;;;;;;;35.65;20.52;;;;;;;6.65;95.04;101299.59;1593227;88;25865;-78
2021/11/24 09:58:59;;;;;;;39.67;21.25;;;;;;;6.67;95.02;101288.83;1618819;88;25895;-77
2021/11/24 10:01:26;;;;;;;38.80;21.15;;;;;;;6.68;95.10;101291.82;1552357;88;25909;-78
2021/11/24 10:03:53;;;;;;;37.95;21.55;;;;;;;6.67;95.16;101287.50;1614105;87;27592;-79
2021/11/24 10:06:22;;;;;;;44.10;24.40;;;;;;;6.66;95.04;101283.98;1593223;88;25853;-78
2021/11/24 10:08:51;;;;;;;44.50;25.52;;;;;;;6.67;95.22;101291.48;1572749;88;25840;-78
2021/11/24 10:11:19;;;;;;;40.65;22.50;;;;;;;6.67;95.25;101282.17;1618642;88;25766;-78
2021/11/24 10:13:50;;;;;;;40.00;22.48;;;;;;;6.67;95.24;101287.50;1572775;88;26080;-78
2021/11/24 10:16:28;;;;;;;37.35;21.82;;;;;;;6.70;95.40;101289.36;1593310;88;28320;-78
2021/11/24 10:19:06;;;;;;;34.38;20.60;;;;;;;6.70;95.10;101291.18;1572158;88;26617;-79
2021/11/24 10:21:34;;;;;;;38.73;22.98;;;;;;;6.69;95.07;101293.52;1618393;88;25798;-78
2021/11/24 10:24:05;;;;;;;38.40;20.88;;;;;;;6.68;94.90;101291.34;1592921;88;26629;-78
2021/11/24 10:26:36;;;;;;;34.05;20.10;;;;;;;6.69;95.19;101289.00;1593227;88;26685;-78
2021/11/24 10:29:07;;;;;;;35.38;21.35;;;;;;;6.70;95.05;101276.54;1572370;88;27537;-78
2021/11/24 10:31:48;;;;;;;43.20;23.85;;;;;;;6.70;94.97;101280.53;1592997;88;25892;-78
2021/11/24 10:34:30;;;;;;;;;;;;;;;6.70;95.18;101280.53;1594985;88;25823;-78
2021/11/24 10:37:12;;;;;;;;;;;;;;;6.66;94.99;101273.34;1574663;88;25862;-78
2021/11/24 10:39:53;;;;;;;34.80;18.70;;;;;;;6.60;95.16;101272.59;1618751;88;25848;-78
2021/11/24 10:42:33;;;;;;;39.48;20.80;;;;;;;6.58;95.26;101270.57;1601957;88;28167;-77
2021/11/24 10:45:15;;;;;;;39.08;22.20;;;;;;;6.58;95.23;101271.05;1573534;88;26291;-78
2021/11/24 10:47:52;;;;;;;34.13;19.85;;;;;;;6.59;95.42;101264.25;1571953;88;26475;-78
2021/11/24 10:50:30;;;;;;;35.65;21.10;;;;;;;6.60;95.36;101261.95;1617926;88;26348;-78
2021/11/24 10:52:58;;;;;;;38.48;22.15;;;;;;;6.63;95.52;101261.64;1574096;88;26180;-79
2021/11/24 10:55:30;;;;;;;36.95;21.15;;;;;;;6.63;95.30;101256.31;1613891;88;28205;-78
2021/11/24 10:58:24;;;;;;;34.73;21.25;;;;;;;6.68;95.62;101254.06;1572550;88;25889;-78
2021/11/24 11:00:44;;;;;;;35.60;20.35;;;;;;;6.73;96.00;101254.48;1615851;88;25922;-78
2021/11/24 11:03:12;;;;;;;35.03;19.77;;;;;;;6.79;95.70;101247.23;1593302;88;25938;-79
2021/11/24 11:05:44;;;;;;;30.68;19.30;;;;;;;6.87;96.17;101249.14;1613664;88;25847;-78
2021/11/24 11:08:15;;;;;;;37.45;22.02;;;;;;;6.94;95.98;101252.91;1593168;88;28477;-78
2021/11/24 11:10:45;;;;;;;35.15;20.17;;;;;;;6.98;95.75;101245.81;1618489;88;25847;-78
2021/11/24 11:13:19;;;;;;;34.60;20.65;;;;;;;7.03;95.83;101246.70;1601936;88;26019;-78
2021/11/24 11:15:49;;;;;;;32.88;20.40;;;;;;;7.07;95.45;101242.75;1593193;88;26440;-78
2021/11/24 11:18:31;;;;;;;73.85;38.15;;;;;;;7.07;94.97;101238.75;1572480;88;26562;-79
2021/11/24 11:21:07;;;;;;;41.88;25.55;;;;;;;7.10;95.19;101237.63;1618447;88;27499;-78